createdAt,value
2018-12-13T00:00:39.314Z,1021.41
2018-12-13T00:01:39.298Z,1021.41
2018-12-13T00:02:39.286Z,1021.43
2018-12-13T00:03:39.287Z,1021.37
2018-12-13T00:04:39.271Z,1021.39
2018-12-13T00:05:39.261Z,1021.39
2018-12-13T00:06:39.249Z,1021.40
2018-12-13T00:07:39.240Z,1021.40
2018-12-13T00:08:39.228Z,1021.39
2018-12-13T00:09:39.226Z,1021.40
2018-12-13T00:10:39.208Z,1021.35
2018-12-13T00:11:39.890Z,1021.33
2018-12-13T00:12:39.188Z,1021.39
2018-12-13T00:13:39.173Z,1021.38
2018-12-13T00:14:39.166Z,1021.37
2018-12-13T00:15:39.162Z,1021.36
2018-12-13T00:16:39.147Z,1021.37
2018-12-13T00:17:39.141Z,1021.35
2018-12-13T00:18:39.127Z,1021.36
2018-12-13T00:19:39.118Z,1021.34
2018-12-13T00:20:39.102Z,1021.34
2018-12-13T00:21:39.093Z,1021.31
2018-12-13T00:22:39.083Z,1021.34
2018-12-13T00:23:39.077Z,1021.34
2018-12-13T00:24:39.062Z,1021.36
2018-12-13T00:25:39.053Z,1021.36
2018-12-13T00:26:39.045Z,1021.34
2018-12-13T00:27:39.035Z,1021.30
2018-12-13T00:28:39.024Z,1021.31
2018-12-13T00:29:39.016Z,1021.35
2018-12-13T00:30:38.998Z,1021.31
2018-12-13T00:31:38.991Z,1021.31
2018-12-13T00:32:38.979Z,1021.32
2018-12-13T00:33:38.975Z,1021.31
2018-12-13T00:34:38.960Z,1021.28
2018-12-13T00:35:38.960Z,1021.29
2018-12-13T00:36:39.821Z,1021.30
2018-12-13T00:37:38.928Z,1021.30
2018-12-13T00:38:38.919Z,1021.29
2018-12-13T00:39:38.907Z,1021.29
2018-12-13T00:40:38.937Z,1021.31
2018-12-13T00:41:38.884Z,1021.29
2018-12-13T00:42:38.872Z,1021.34
2018-12-13T00:43:38.868Z,1021.34
2018-12-13T00:44:38.854Z,1021.31
2018-12-13T00:45:38.846Z,1021.33
2018-12-13T00:46:38.836Z,1021.33
2018-12-13T00:47:38.820Z,1021.32
2018-12-13T00:48:38.809Z,1021.31
2018-12-13T00:49:38.803Z,1021.35
2018-12-13T00:50:38.788Z,1021.32
2018-12-13T00:51:38.781Z,1021.31
2018-12-13T00:52:38.769Z,1021.29
2018-12-13T00:53:38.756Z,1021.32
2018-12-13T00:54:38.748Z,1021.31
2018-12-13T00:55:38.737Z,1021.31
2018-12-13T00:56:38.734Z,1021.33
2018-12-13T00:57:38.717Z,1021.34
2018-12-13T00:58:38.707Z,1021.33
2018-12-13T00:59:38.697Z,1021.30
2018-12-13T01:00:38.692Z,1021.36
2018-12-13T01:01:38.679Z,1021.36
2018-12-13T01:02:38.671Z,1021.37
2018-12-13T01:03:38.664Z,1021.37
2018-12-13T01:04:38.645Z,1021.40
2018-12-13T01:05:38.637Z,1021.34
2018-12-13T01:06:38.628Z,1021.39
2018-12-13T01:07:38.613Z,1021.37
2018-12-13T01:08:38.606Z,1021.38
2018-12-13T01:09:38.591Z,1021.38
2018-12-13T01:10:38.585Z,1021.43
2018-12-13T01:11:38.572Z,1021.39
2018-12-13T01:12:38.566Z,1021.35
2018-12-13T01:13:38.553Z,1021.35
2018-12-13T01:14:38.545Z,1021.36
2018-12-13T01:15:38.531Z,1021.34
2018-12-13T01:16:38.521Z,1021.35
2018-12-13T01:17:38.509Z,1021.31
2018-12-13T01:18:38.498Z,1021.36
2018-12-13T01:19:38.491Z,1021.30
2018-12-13T01:20:38.482Z,1021.29
2018-12-13T01:21:38.469Z,1021.30
2018-12-13T01:22:38.460Z,1021.32
2018-12-13T01:23:38.447Z,1021.31
2018-12-13T01:24:38.436Z,1021.26
2018-12-13T01:25:38.428Z,1021.23
2018-12-13T01:26:38.419Z,1021.23
2018-12-13T01:27:38.410Z,1021.28
2018-12-13T01:28:38.397Z,1021.29
2018-12-13T01:29:38.394Z,1021.29
2018-12-13T01:30:38.374Z,1021.26
2018-12-13T01:31:38.362Z,1021.23
2018-12-13T01:32:38.358Z,1021.26
2018-12-13T01:33:38.346Z,1021.26
2018-12-13T01:34:38.334Z,1021.21
2018-12-13T01:35:38.321Z,1021.20
2018-12-13T01:36:38.315Z,1021.16
2018-12-13T01:37:38.311Z,1021.16
2018-12-13T01:38:38.290Z,1021.14
2018-12-13T01:39:38.306Z,1021.18
2018-12-13T01:40:38.272Z,1021.15
2018-12-13T01:41:38.257Z,1021.15
2018-12-13T01:42:38.253Z,1021.13
2018-12-13T01:43:38.906Z,1021.13
2018-12-13T01:44:38.236Z,1021.15
2018-12-13T01:45:38.222Z,1021.14
2018-12-13T01:46:38.213Z,1021.13
2018-12-13T01:47:38.201Z,1021.14
2018-12-13T01:48:38.191Z,1021.11
2018-12-13T01:49:38.178Z,1021.14
2018-12-13T01:50:38.165Z,1021.08
2018-12-13T01:51:38.157Z,1021.07
2018-12-13T01:52:38.147Z,1021.14
2018-12-13T01:53:38.133Z,1021.12
2018-12-13T01:54:38.125Z,1021.12
2018-12-13T01:55:38.114Z,1021.08
2018-12-13T01:56:38.103Z,1021.10
2018-12-13T01:57:38.102Z,1021.13
2018-12-13T01:58:38.082Z,1021.09
2018-12-13T01:59:38.068Z,1021.12
2018-12-13T02:00:38.062Z,1021.11
2018-12-13T02:01:38.058Z,1021.08
2018-12-13T02:02:38.042Z,1021.07
2018-12-13T02:03:38.029Z,1021.07
2018-12-13T02:04:38.020Z,1021.06
2018-12-13T02:05:38.011Z,1021.06
2018-12-13T02:06:38.002Z,1021.09
2018-12-13T02:07:37.988Z,1021.06
2018-12-13T02:08:37.983Z,1021.02
2018-12-13T02:09:37.969Z,1021.04
2018-12-13T02:10:37.954Z,1021.01
2018-12-13T02:11:37.946Z,1021.00
2018-12-13T02:12:37.938Z,1020.99
2018-12-13T02:13:37.924Z,1021.00
2018-12-13T02:14:37.920Z,1020.99
2018-12-13T02:15:37.976Z,1020.99
2018-12-13T02:16:37.897Z,1021.01
2018-12-13T02:17:37.883Z,1021.01
2018-12-13T02:18:37.871Z,1020.97
2018-12-13T02:19:37.864Z,1020.98
2018-12-13T02:20:37.860Z,1020.98
2018-12-13T02:21:37.841Z,1020.94
2018-12-13T02:22:37.839Z,1020.95
2018-12-13T02:23:37.823Z,1020.93
2018-12-13T02:24:37.815Z,1020.94
2018-12-13T02:25:37.804Z,1020.92
2018-12-13T02:26:37.801Z,1020.96
2018-12-13T02:27:37.787Z,1020.97
2018-12-13T02:28:37.771Z,1020.94
2018-12-13T02:29:37.759Z,1020.94
2018-12-13T02:30:37.751Z,1020.95
2018-12-13T02:31:37.741Z,1020.96
2018-12-13T02:32:37.731Z,1020.96
2018-12-13T02:33:37.718Z,1020.91
2018-12-13T02:34:37.709Z,1020.94
2018-12-13T02:35:37.698Z,1020.92
2018-12-13T02:36:37.702Z,1020.94
2018-12-13T02:37:37.678Z,1020.91
2018-12-13T02:38:37.670Z,1020.94
2018-12-13T02:39:37.660Z,1020.93
2018-12-13T02:40:37.648Z,1020.96
2018-12-13T02:41:37.634Z,1020.94
2018-12-13T02:42:37.649Z,1020.96
2018-12-13T02:43:37.613Z,1020.97
2018-12-13T02:44:37.606Z,1021.01
2018-12-13T02:45:37.604Z,1020.99
2018-12-13T02:46:37.596Z,1020.96
2018-12-13T02:47:37.571Z,1020.96
2018-12-13T02:48:37.569Z,1020.96
2018-12-13T02:49:37.558Z,1020.95
2018-12-13T02:50:37.541Z,1020.96
2018-12-13T02:51:37.537Z,1021.00
2018-12-13T02:52:37.523Z,1020.99
2018-12-13T02:53:37.509Z,1020.92
2018-12-13T02:54:37.503Z,1020.96
2018-12-13T02:55:37.543Z,1020.96
2018-12-13T02:56:37.484Z,1020.95
2018-12-13T02:57:37.470Z,1020.95
2018-12-13T02:58:37.457Z,1020.95
2018-12-13T02:59:37.448Z,1020.92
2018-12-13T03:00:37.438Z,1020.88
2018-12-13T03:01:37.431Z,1020.86
2018-12-13T03:02:37.418Z,1020.94
2018-12-13T03:03:37.411Z,1020.87
2018-12-13T03:04:37.398Z,1020.86
2018-12-13T03:05:37.382Z,1020.89
2018-12-13T03:06:37.388Z,1020.86
2018-12-13T03:07:37.366Z,1020.83
2018-12-13T03:08:37.356Z,1020.86
2018-12-13T03:09:37.348Z,1020.84
2018-12-13T03:10:37.334Z,1020.86
2018-12-13T03:11:37.325Z,1020.89
2018-12-13T03:12:37.312Z,1020.86
2018-12-13T03:13:37.301Z,1020.86
2018-12-13T03:14:37.295Z,1020.87
2018-12-13T03:15:37.282Z,1020.87
2018-12-13T03:16:37.270Z,1020.89
2018-12-13T03:17:37.260Z,1020.87
2018-12-13T03:18:37.250Z,1020.86
2018-12-13T03:19:37.236Z,1020.84
2018-12-13T03:20:37.229Z,1020.87
2018-12-13T03:21:37.220Z,1020.87
2018-12-13T03:22:37.204Z,1020.85
2018-12-13T03:23:37.196Z,1020.82
2018-12-13T03:24:37.189Z,1020.84
2018-12-13T03:25:37.174Z,1020.83
2018-12-13T03:26:37.168Z,1020.85
2018-12-13T03:27:37.152Z,1020.81
2018-12-13T03:28:37.143Z,1020.78
2018-12-13T03:29:37.133Z,1020.79
2018-12-13T03:30:37.124Z,1020.80
2018-12-13T03:31:37.120Z,1020.81
2018-12-13T03:32:37.110Z,1020.83
2018-12-13T03:33:37.087Z,1020.78
2018-12-13T03:34:37.080Z,1020.80
2018-12-13T03:35:37.072Z,1020.77
2018-12-13T03:36:38.001Z,1020.79
2018-12-13T03:37:37.046Z,1020.80
2018-12-13T03:38:37.041Z,1020.77
2018-12-13T03:39:37.031Z,1020.74
2018-12-13T03:40:37.018Z,1020.73
2018-12-13T03:41:37.010Z,1020.74
2018-12-13T03:42:36.997Z,1020.71
2018-12-13T03:43:36.991Z,1020.67
2018-12-13T03:44:36.992Z,1020.67
2018-12-13T03:45:36.965Z,1020.72
2018-12-13T03:46:36.953Z,1020.68
2018-12-13T03:47:36.945Z,1020.69
2018-12-13T03:48:36.933Z,1020.65
2018-12-13T03:49:36.923Z,1020.65
2018-12-13T03:50:36.911Z,1020.66
2018-12-13T03:51:36.898Z,1020.67
2018-12-13T03:52:36.890Z,1020.66
2018-12-13T03:53:36.878Z,1020.64
2018-12-13T03:54:36.878Z,1020.66
2018-12-13T03:55:36.861Z,1020.62
2018-12-13T03:56:36.845Z,1020.64
2018-12-13T03:57:36.836Z,1020.65
2018-12-13T03:58:36.831Z,1020.62
2018-12-13T03:59:36.813Z,1020.64
2018-12-13T04:00:36.809Z,1020.58
2018-12-13T04:01:36.799Z,1020.57
2018-12-13T04:02:36.783Z,1020.60
2018-12-13T04:03:36.780Z,1020.60
2018-12-13T04:04:37.160Z,1020.55
2018-12-13T04:05:37.501Z,1020.56
2018-12-13T04:06:37.430Z,1020.57
2018-12-13T04:07:36.738Z,1020.55
2018-12-13T04:08:36.719Z,1020.58
2018-12-13T04:09:36.708Z,1020.55
2018-12-13T04:10:36.697Z,1020.58
2018-12-13T04:11:36.691Z,1020.56
2018-12-13T04:12:36.678Z,1020.62
2018-12-13T04:13:36.669Z,1020.62
2018-12-13T04:14:36.650Z,1020.57
2018-12-13T04:15:36.648Z,1020.59
2018-12-13T04:16:36.636Z,1020.54
2018-12-13T04:17:36.622Z,1020.50
2018-12-13T04:18:36.613Z,1020.49
2018-12-13T04:19:36.605Z,1020.48
2018-12-13T04:20:36.592Z,1020.53
2018-12-13T04:21:36.589Z,1020.55
2018-12-13T04:22:36.571Z,1020.60
2018-12-13T04:23:36.561Z,1020.63
2018-12-13T04:24:36.551Z,1020.69
2018-12-13T04:25:36.540Z,1020.68
2018-12-13T04:26:36.530Z,1020.61
2018-12-13T04:27:36.519Z,1020.53
2018-12-13T04:28:36.509Z,1020.57
2018-12-13T04:29:36.496Z,1020.58
2018-12-13T04:30:36.487Z,1020.61
2018-12-13T04:31:36.475Z,1020.64
2018-12-13T04:32:36.466Z,1020.56
2018-12-13T04:33:36.456Z,1020.53
2018-12-13T04:34:36.444Z,1020.51
2018-12-13T04:35:36.434Z,1020.55
2018-12-13T04:36:36.423Z,1020.56
2018-12-13T04:37:36.413Z,1020.55
2018-12-13T04:38:36.401Z,1020.52
2018-12-13T04:39:36.393Z,1020.54
2018-12-13T04:40:36.380Z,1020.49
2018-12-13T04:41:36.372Z,1020.52
2018-12-13T04:42:36.362Z,1020.52
2018-12-13T04:43:36.349Z,1020.50
2018-12-13T04:44:37.829Z,1020.56
2018-12-13T04:45:36.329Z,1020.56
2018-12-13T04:46:36.317Z,1020.51
2018-12-13T04:47:36.309Z,1020.49
2018-12-13T04:48:36.319Z,1020.48
2018-12-13T04:49:36.287Z,1020.51
2018-12-13T04:50:36.296Z,1020.50
2018-12-13T04:51:36.264Z,1020.50
2018-12-13T04:52:36.258Z,1020.48
2018-12-13T04:53:36.251Z,1020.46
2018-12-13T04:54:36.231Z,1020.45
2018-12-13T04:55:36.225Z,1020.44
2018-12-13T04:56:36.211Z,1020.41
2018-12-13T04:57:36.201Z,1020.42
2018-12-13T04:58:36.193Z,1020.44
2018-12-13T04:59:36.181Z,1020.43
2018-12-13T05:00:36.168Z,1020.46
2018-12-13T05:01:36.156Z,1020.42
2018-12-13T05:02:36.149Z,1020.40
2018-12-13T05:03:36.137Z,1020.33
2018-12-13T05:04:36.131Z,1020.39
2018-12-13T05:05:36.120Z,1020.37
2018-12-13T05:06:36.106Z,1020.37
2018-12-13T05:07:41.519Z,1020.38
2018-12-13T05:08:36.089Z,1020.37
2018-12-13T05:09:36.073Z,1020.37
2018-12-13T05:10:36.063Z,1020.38
2018-12-13T05:11:36.057Z,1020.36
2018-12-13T05:12:36.041Z,1020.38
2018-12-13T05:13:36.029Z,1020.32
2018-12-13T05:14:36.023Z,1020.34
2018-12-13T05:15:36.008Z,1020.33
2018-12-13T05:16:35.999Z,1020.34
2018-12-13T05:17:35.991Z,1020.31
2018-12-13T05:18:35.976Z,1020.34
2018-12-13T05:19:35.967Z,1020.35
2018-12-13T05:20:35.959Z,1020.35
2018-12-13T05:21:35.944Z,1020.33
2018-12-13T05:22:35.933Z,1020.34
2018-12-13T05:23:35.927Z,1020.31
2018-12-13T05:24:35.915Z,1020.35
2018-12-13T05:25:35.903Z,1020.33
2018-12-13T05:26:35.894Z,1020.32
2018-12-13T05:27:35.884Z,1020.36
2018-12-13T05:28:35.873Z,1020.38
2018-12-13T05:29:35.860Z,1020.38
2018-12-13T05:30:35.855Z,1020.37
2018-12-13T05:31:35.841Z,1020.40
2018-12-13T05:32:35.830Z,1020.32
2018-12-13T05:33:35.818Z,1020.33
2018-12-13T05:34:35.813Z,1020.35
2018-12-13T05:35:35.807Z,1020.32
2018-12-13T05:36:35.801Z,1020.32
2018-12-13T05:37:35.778Z,1020.31
2018-12-13T05:38:35.766Z,1020.34
2018-12-13T05:39:35.758Z,1020.34
2018-12-13T05:40:35.747Z,1020.31
2018-12-13T05:41:35.737Z,1020.28
2018-12-13T05:42:35.731Z,1020.29
2018-12-13T05:43:35.717Z,1020.27
2018-12-13T05:44:35.705Z,1020.26
2018-12-13T05:45:35.696Z,1020.30
2018-12-13T05:46:35.690Z,1020.31
2018-12-13T05:47:35.675Z,1020.29
2018-12-13T05:48:35.664Z,1020.25
2018-12-13T05:49:35.658Z,1020.27
2018-12-13T05:50:35.642Z,1020.22
2018-12-13T05:51:35.632Z,1020.19
2018-12-13T05:52:35.622Z,1020.18
2018-12-13T05:53:35.612Z,1020.17
2018-12-13T05:54:35.599Z,1020.18
2018-12-13T05:55:35.592Z,1020.16
2018-12-13T05:56:35.579Z,1020.19
2018-12-13T05:57:35.570Z,1020.22
2018-12-13T05:58:35.558Z,1020.19
2018-12-13T05:59:35.548Z,1020.18
2018-12-13T06:00:35.542Z,1020.17
2018-12-13T06:01:35.525Z,1020.18
2018-12-13T06:02:35.516Z,1020.14
2018-12-13T06:03:35.509Z,1020.16
2018-12-13T06:04:35.493Z,1020.17
2018-12-13T06:05:35.482Z,1020.22
2018-12-13T06:06:35.476Z,1020.20
2018-12-13T06:07:35.461Z,1020.18
2018-12-13T06:08:35.455Z,1020.18
2018-12-13T06:09:35.440Z,1020.17
2018-12-13T06:10:35.431Z,1020.21
2018-12-13T06:11:35.425Z,1020.20
2018-12-13T06:12:35.415Z,1020.21
2018-12-13T06:13:35.396Z,1020.15
2018-12-13T06:14:35.388Z,1020.18
2018-12-13T06:15:35.384Z,1020.15
2018-12-13T06:16:35.363Z,1020.17
2018-12-13T06:17:35.355Z,1020.18
2018-12-13T06:18:35.348Z,1020.17
2018-12-13T06:19:35.333Z,1020.25
2018-12-13T06:20:35.323Z,1020.25
2018-12-13T06:21:37.025Z,1020.23
2018-12-13T06:22:35.299Z,1020.24
2018-12-13T06:23:35.291Z,1020.24
2018-12-13T06:24:35.287Z,1020.25
2018-12-13T06:25:35.269Z,1020.26
2018-12-13T06:26:35.260Z,1020.29
2018-12-13T06:27:35.250Z,1020.24
2018-12-13T06:28:35.241Z,1020.27
2018-12-13T06:29:41.701Z,1020.30
2018-12-13T06:30:35.218Z,1020.30
2018-12-13T06:31:35.206Z,1020.29
2018-12-13T06:32:35.199Z,1020.32
2018-12-13T06:33:35.186Z,1020.30
2018-12-13T06:34:35.178Z,1020.30
2018-12-13T06:35:35.167Z,1020.25
2018-12-13T06:36:35.152Z,1020.24
2018-12-13T06:37:35.140Z,1020.23
2018-12-13T06:38:35.132Z,1020.20
2018-12-13T06:39:35.121Z,1020.23
2018-12-13T06:40:35.113Z,1020.19
2018-12-13T06:41:35.102Z,1020.19
2018-12-13T06:42:35.088Z,1020.19
2018-12-13T06:43:35.076Z,1020.25
2018-12-13T06:44:35.068Z,1020.23
2018-12-13T06:45:35.057Z,1020.27
2018-12-13T06:46:35.045Z,1020.29
2018-12-13T06:47:35.036Z,1020.30
2018-12-13T06:48:35.024Z,1020.30
2018-12-13T06:49:35.010Z,1020.30
2018-12-13T06:50:35.003Z,1020.31
2018-12-13T06:51:34.992Z,1020.26
2018-12-13T06:52:34.982Z,1020.23
2018-12-13T06:53:34.971Z,1020.24
2018-12-13T06:54:34.958Z,1020.25
2018-12-13T06:55:34.952Z,1020.24
2018-12-13T06:56:34.944Z,1020.21
2018-12-13T06:57:34.926Z,1020.22
2018-12-13T06:58:34.915Z,1020.25
2018-12-13T06:59:34.915Z,1020.29
2018-12-13T07:00:34.896Z,1020.28
2018-12-13T07:01:34.884Z,1020.26
2018-12-13T07:02:34.875Z,1020.26
2018-12-13T07:03:34.863Z,1020.26
2018-12-13T07:04:34.852Z,1020.29
2018-12-13T07:05:34.839Z,1020.29
2018-12-13T07:06:34.828Z,1020.26
2018-12-13T07:07:34.821Z,1020.28
2018-12-13T07:08:34.811Z,1020.30
2018-12-13T07:09:34.797Z,1020.30
2018-12-13T07:10:34.788Z,1020.28
2018-12-13T07:11:34.779Z,1020.28
2018-12-13T07:12:34.763Z,1020.32
2018-12-13T07:13:34.756Z,1020.25
2018-12-13T07:14:34.750Z,1020.25
2018-12-13T07:15:34.736Z,1020.26
2018-12-13T07:16:34.724Z,1020.28
2018-12-13T07:17:34.713Z,1020.27
2018-12-13T07:18:34.705Z,1020.25
2018-12-13T07:19:34.703Z,1020.26
2018-12-13T07:20:34.684Z,1020.26
2018-12-13T07:21:34.668Z,1020.24
2018-12-13T07:22:34.658Z,1020.28
2018-12-13T07:23:34.651Z,1020.24
2018-12-13T07:24:34.637Z,1020.18
2018-12-13T07:25:34.626Z,1020.20
2018-12-13T07:26:34.615Z,1020.21
2018-12-13T07:27:34.606Z,1020.19
2018-12-13T07:28:34.593Z,1020.19
2018-12-13T07:29:34.585Z,1020.14
2018-12-13T07:30:34.572Z,1020.13
2018-12-13T07:31:34.562Z,1020.13
2018-12-13T07:32:34.552Z,1020.20
2018-12-13T07:33:34.537Z,1020.24
2018-12-13T07:34:34.532Z,1020.26
2018-12-13T07:35:34.519Z,1020.29
2018-12-13T07:36:34.505Z,1020.32
2018-12-13T07:37:34.496Z,1020.33
2018-12-13T07:38:34.488Z,1020.33
2018-12-13T07:39:34.471Z,1020.36
2018-12-13T07:40:34.465Z,1020.30
2018-12-13T07:41:34.456Z,1020.33
2018-12-13T07:42:34.443Z,1020.35
2018-12-13T07:43:34.432Z,1020.33
2018-12-13T07:44:34.424Z,1020.34
2018-12-13T07:45:34.407Z,1020.33
2018-12-13T07:46:34.400Z,1020.34
2018-12-13T07:47:34.389Z,1020.31
2018-12-13T07:48:34.379Z,1020.30
2018-12-13T07:49:34.367Z,1020.34
2018-12-13T07:50:34.359Z,1020.39
2018-12-13T07:51:34.346Z,1020.41
2018-12-13T07:52:34.346Z,1020.40
2018-12-13T07:53:34.325Z,1020.41
2018-12-13T07:54:34.312Z,1020.41
2018-12-13T07:55:34.441Z,1020.40
2018-12-13T07:56:34.294Z,1020.41
2018-12-13T07:57:34.281Z,1020.42
2018-12-13T07:58:34.270Z,1020.41
2018-12-13T07:59:34.260Z,1020.44
2018-12-13T08:00:34.345Z,1020.44
2018-12-13T08:01:34.237Z,1020.47
2018-12-13T08:02:34.231Z,1020.42
2018-12-13T08:03:34.212Z,1020.40
2018-12-13T08:04:34.205Z,1020.41
2018-12-13T08:05:34.193Z,1020.41
2018-12-13T08:06:34.180Z,1020.44
2018-12-13T08:07:35.477Z,1020.43
2018-12-13T08:08:34.171Z,1020.43
2018-12-13T08:09:34.147Z,1020.45
2018-12-13T08:10:34.148Z,1020.46
2018-12-13T08:11:34.130Z,1020.40
2018-12-13T08:12:34.120Z,1020.41
2018-12-13T08:13:34.102Z,1020.39
2018-12-13T08:14:34.097Z,1020.45
2018-12-13T08:15:34.084Z,1020.42
2018-12-13T08:16:34.074Z,1020.43
2018-12-13T08:17:34.066Z,1020.42
2018-12-13T08:18:34.049Z,1020.42
2018-12-13T08:19:34.039Z,1020.43
2018-12-13T08:20:34.029Z,1020.42
2018-12-13T08:21:34.017Z,1020.48
2018-12-13T08:22:34.007Z,1020.46
2018-12-13T08:23:33.997Z,1020.43
2018-12-13T08:24:33.981Z,1020.45
2018-12-13T08:25:33.974Z,1020.43
2018-12-13T08:26:33.963Z,1020.40
2018-12-13T08:27:33.953Z,1020.42
2018-12-13T08:28:33.942Z,1020.43
2018-12-13T08:29:33.936Z,1020.37
2018-12-13T08:30:33.920Z,1020.39
2018-12-13T08:31:33.906Z,1020.40
2018-12-13T08:32:33.898Z,1020.38
2018-12-13T08:33:33.886Z,1020.38
2018-12-13T08:34:33.876Z,1020.37
2018-12-13T08:35:33.864Z,1020.35
2018-12-13T08:36:33.854Z,1020.34
2018-12-13T08:37:33.841Z,1020.35
2018-12-13T08:38:33.830Z,1020.36
2018-12-13T08:39:33.819Z,1020.39
2018-12-13T08:40:33.809Z,1020.34
2018-12-13T08:41:33.799Z,1020.33
2018-12-13T08:42:33.785Z,1020.35
2018-12-13T08:43:33.772Z,1020.35
2018-12-13T08:44:33.769Z,1020.33
2018-12-13T08:45:33.760Z,1020.35
2018-12-13T08:46:36.467Z,1020.33
2018-12-13T08:47:33.731Z,1020.33
2018-12-13T08:48:33.720Z,1020.37
2018-12-13T08:49:33.712Z,1020.34
2018-12-13T08:50:33.698Z,1020.34
2018-12-13T08:51:33.688Z,1020.40
2018-12-13T08:52:33.688Z,1020.38
2018-12-13T08:53:33.663Z,1020.36
2018-12-13T08:54:33.655Z,1020.35
2018-12-13T08:55:33.641Z,1020.36
2018-12-13T08:56:33.634Z,1020.34
2018-12-13T08:57:33.623Z,1020.33
2018-12-13T08:58:33.609Z,1020.38
2018-12-13T08:59:33.599Z,1020.40
2018-12-13T09:00:33.590Z,1020.45
2018-12-13T09:01:33.578Z,1020.44
2018-12-13T09:02:33.567Z,1020.38
2018-12-13T09:03:33.560Z,1020.41
2018-12-13T09:04:33.544Z,1020.37
2018-12-13T09:05:33.530Z,1020.39
2018-12-13T09:06:33.528Z,1020.37
2018-12-13T09:07:33.510Z,1020.37
2018-12-13T09:08:33.864Z,1020.38
2018-12-13T09:09:33.495Z,1020.37
2018-12-13T09:10:33.478Z,1020.41
2018-12-13T09:11:33.468Z,1020.41
2018-12-13T09:12:33.462Z,1020.43
2018-12-13T09:13:33.448Z,1020.45
2018-12-13T09:14:33.435Z,1020.37
2018-12-13T09:15:33.429Z,1020.38
2018-12-13T09:16:33.418Z,1020.39
2018-12-13T09:17:33.403Z,1020.39
2018-12-13T09:18:33.396Z,1020.38
2018-12-13T09:19:33.382Z,1020.37
2018-12-13T09:20:33.373Z,1020.35
2018-12-13T09:21:33.364Z,1020.37
2018-12-13T09:22:33.349Z,1020.36
2018-12-13T09:23:33.342Z,1020.39
2018-12-13T09:24:33.332Z,1020.41
2018-12-13T09:25:33.316Z,1020.37
2018-12-13T09:26:33.306Z,1020.33
2018-12-13T09:27:33.299Z,1020.31
2018-12-13T09:28:33.284Z,1020.32
2018-12-13T09:29:33.274Z,1020.31
2018-12-13T09:30:33.267Z,1020.32
2018-12-13T09:31:33.253Z,1020.27
2018-12-13T09:32:33.241Z,1020.27
2018-12-13T09:33:33.236Z,1020.26
2018-12-13T09:34:33.218Z,1020.24
2018-12-13T09:35:33.211Z,1020.24
2018-12-13T09:36:33.201Z,1020.22
2018-12-13T09:37:33.187Z,1020.25
2018-12-13T09:38:33.179Z,1020.21
2018-12-13T09:39:33.172Z,1020.21
2018-12-13T09:40:33.157Z,1020.23
2018-12-13T09:41:33.146Z,1020.21
2018-12-13T09:42:33.137Z,1020.23
2018-12-13T09:43:33.130Z,1020.22
2018-12-13T09:44:33.116Z,1020.21
2018-12-13T09:45:33.106Z,1020.16
2018-12-13T09:46:33.095Z,1020.21
2018-12-13T09:47:33.084Z,1020.20
2018-12-13T09:48:33.072Z,1020.20
2018-12-13T09:49:33.061Z,1020.20
2018-12-13T09:50:33.054Z,1020.20
2018-12-13T09:51:33.042Z,1020.20
2018-12-13T09:52:33.034Z,1020.15
2018-12-13T09:53:33.025Z,1020.18
2018-12-13T09:54:33.012Z,1020.15
2018-12-13T09:55:33.002Z,1020.14
2018-12-13T09:56:32.990Z,1020.17
2018-12-13T09:57:32.979Z,1020.18
2018-12-13T09:58:32.972Z,1020.17
2018-12-13T09:59:32.962Z,1020.15
2018-12-13T10:00:32.952Z,1020.13
2018-12-13T10:01:32.943Z,1020.15
2018-12-13T10:02:32.931Z,1020.14
2018-12-13T10:03:32.918Z,1020.14
2018-12-13T10:04:33.485Z,1020.14
2018-12-13T10:05:32.899Z,1020.11
2018-12-13T10:06:32.892Z,1020.13
2018-12-13T10:07:32.887Z,1020.13
2018-12-13T10:08:32.873Z,1020.11
2018-12-13T10:09:32.859Z,1020.14
2018-12-13T10:10:32.850Z,1020.09
2018-12-13T10:11:32.841Z,1020.12
2018-12-13T10:12:32.833Z,1020.11
2018-12-13T10:13:32.817Z,1020.10
2018-12-13T10:14:32.809Z,1020.10
2018-12-13T10:15:32.812Z,1020.10
2018-12-13T10:16:32.791Z,1020.09
2018-12-13T10:17:32.779Z,1020.09
2018-12-13T10:18:32.773Z,1020.12
2018-12-13T10:19:32.767Z,1020.07
2018-12-13T10:20:32.749Z,1020.05
2018-12-13T10:21:32.740Z,1020.02
2018-12-13T10:22:32.730Z,1020.06
2018-12-13T10:23:32.719Z,1020.06
2018-12-13T10:24:32.718Z,1019.99
2018-12-13T10:25:32.699Z,1019.95
2018-12-13T10:26:32.709Z,1019.99
2018-12-13T10:27:32.678Z,1019.94
2018-12-13T10:28:32.667Z,1019.97
2018-12-13T10:29:32.660Z,1019.94
2018-12-13T10:30:32.646Z,1019.96
2018-12-13T10:31:32.638Z,1019.95
2018-12-13T10:32:32.628Z,1019.93
2018-12-13T10:33:32.616Z,1019.97
2018-12-13T10:34:32.606Z,1019.95
2018-12-13T10:35:32.597Z,1019.95
2018-12-13T10:36:32.586Z,1019.95
2018-12-13T10:37:32.576Z,1019.92
2018-12-13T10:38:32.567Z,1019.91
2018-12-13T10:39:32.553Z,1019.87
2018-12-13T10:40:32.549Z,1019.87
2018-12-13T10:41:32.533Z,1019.85
2018-12-13T10:42:32.526Z,1019.88
2018-12-13T10:43:32.522Z,1019.84
2018-12-13T10:44:32.505Z,1019.84
2018-12-13T10:45:32.495Z,1019.87
2018-12-13T10:46:32.484Z,1019.80
2018-12-13T10:47:32.474Z,1019.87
2018-12-13T10:48:32.466Z,1019.84
2018-12-13T10:49:32.451Z,1019.83
2018-12-13T10:50:32.444Z,1019.82
2018-12-13T10:51:32.433Z,1019.80
2018-12-13T10:52:32.424Z,1019.81
2018-12-13T10:53:32.411Z,1019.82
2018-12-13T10:54:32.407Z,1019.80
2018-12-13T10:55:32.402Z,1019.79
2018-12-13T10:56:32.383Z,1019.79
2018-12-13T10:57:32.373Z,1019.78
2018-12-13T10:58:32.359Z,1019.75
2018-12-13T10:59:32.359Z,1019.75
2018-12-13T11:00:32.342Z,1019.76
2018-12-13T11:01:32.330Z,1019.75
2018-12-13T11:02:32.317Z,1019.73
2018-12-13T11:03:32.314Z,1019.74
2018-12-13T11:04:32.296Z,1019.73
2018-12-13T11:05:32.288Z,1019.78
2018-12-13T11:06:32.277Z,1019.72
2018-12-13T11:07:32.267Z,1019.70
2018-12-13T11:08:32.255Z,1019.71
2018-12-13T11:09:32.251Z,1019.72
2018-12-13T11:10:32.236Z,1019.72
2018-12-13T11:11:32.224Z,1019.72
2018-12-13T11:12:32.218Z,1019.68
2018-12-13T11:13:32.202Z,1019.71
2018-12-13T11:14:32.200Z,1019.69
2018-12-13T11:15:32.186Z,1019.69
2018-12-13T11:16:33.075Z,1019.72
2018-12-13T11:17:32.163Z,1019.69
2018-12-13T11:18:32.156Z,1019.69
2018-12-13T11:19:32.145Z,1019.72
2018-12-13T11:20:32.131Z,1019.68
2018-12-13T11:21:32.121Z,1019.69
2018-12-13T11:22:32.122Z,1019.69
2018-12-13T11:23:32.101Z,1019.67
2018-12-13T11:24:32.091Z,1019.68
2018-12-13T11:25:32.081Z,1019.66
2018-12-13T11:26:32.074Z,1019.70
2018-12-13T11:27:32.059Z,1019.70
2018-12-13T11:28:32.054Z,1019.74
2018-12-13T11:29:32.037Z,1019.67
2018-12-13T11:30:32.034Z,1019.71
2018-12-13T11:31:32.023Z,1019.75
2018-12-13T11:32:32.005Z,1019.73
2018-12-13T11:33:31.999Z,1019.73
2018-12-13T11:34:31.991Z,1019.73
2018-12-13T11:35:31.975Z,1019.74
2018-12-13T11:36:31.972Z,1019.70
2018-12-13T11:37:31.957Z,1019.74
2018-12-13T11:38:31.943Z,1019.73
2018-12-13T11:39:31.935Z,1019.72
2018-12-13T11:40:31.925Z,1019.71
2018-12-13T11:41:31.911Z,1019.72
2018-12-13T11:42:31.903Z,1019.71
2018-12-13T11:43:31.894Z,1019.73
2018-12-13T11:44:31.886Z,1019.73
2018-12-13T11:45:31.873Z,1019.67
2018-12-13T11:46:31.864Z,1019.73
2018-12-13T11:47:31.849Z,1019.68
2018-12-13T11:48:31.843Z,1019.71
2018-12-13T11:49:31.830Z,1019.70
2018-12-13T11:50:31.820Z,1019.69
2018-12-13T11:51:31.813Z,1019.71
2018-12-13T11:52:31.800Z,1019.67
2018-12-13T11:53:31.788Z,1019.66
2018-12-13T11:54:31.781Z,1019.68
2018-12-13T11:55:31.772Z,1019.66
2018-12-13T11:56:31.761Z,1019.63
2018-12-13T11:57:31.749Z,1019.66
2018-12-13T11:58:31.738Z,1019.63
2018-12-13T11:59:31.728Z,1019.63
2018-12-13T12:00:31.720Z,1019.62
2018-12-13T12:01:31.701Z,1019.60
2018-12-13T12:02:31.699Z,1019.61
2018-12-13T12:03:31.688Z,1019.59
2018-12-13T12:04:31.675Z,1019.63
2018-12-13T12:05:31.680Z,1019.59